Time;durP1;ratioP1;P1;durP2;ratioP2;P2;SDS_P1;SDS_P2;PMS_P1;PMS_P2;Temp;Humidity;BMP_temperature;BMP_pressure;BME280_temperature;BME280_humidity;BME280_pressure;Samples;Min_cycle;Max_cycle;Signal;HPM_P1;HPM_P2
2021/04/05 00:00:20;;;;;;;16.13;6.18;;;6.90;55.90;;;;;;4984312;28;20038;-79
2021/04/05 00:02:46;;;;;;;14.70;4.85;;;6.80;56.20;;;;;;4997495;28;20052;-80
2021/04/05 00:05:15;;;;;;;18.10;5.28;;;6.80;55.50;;;;;;4983885;28;20058;-79
2021/04/05 00:07:42;;;;;;;16.60;5.28;;;6.80;55.80;;;;;;4973459;28;20149;-81
2021/04/05 00:10:13;;;;;;;16.33;5.30;;;6.90;55.50;;;;;;4975822;28;20050;-78
2021/04/05 00:12:39;;;;;;;16.25;5.13;;;6.90;54.90;;;;;;4975458;28;20046;-77
2021/04/05 00:15:07;;;;;;;12.43;5.10;;;6.90;54.90;;;;;;4990085;23;20074;-74
2021/04/05 00:17:36;;;;;;;13.98;4.75;;;6.80;54.90;;;;;;4981617;28;20049;-73
2021/04/05 00:20:08;;;;;;;15.98;5.95;;;6.80;55.60;;;;;;4973254;28;20736;-74
2021/04/05 00:22:34;;;;;;;9.90;4.55;;;6.70;55.80;;;;;;4981487;28;20038;-73
2021/04/05 00:24:59;;;;;;;14.40;4.88;;;6.70;56.10;;;;;;4974198;28;20030;-74
2021/04/05 00:27:27;;;;;;;14.80;5.68;;;6.60;55.80;;;;;;4971066;28;20031;-74
2021/04/05 00:29:53;;;;;;;14.00;4.63;;;6.50;56.40;;;;;;4973509;28;20243;-74
2021/04/05 00:32:18;;;;;;;12.98;4.75;;;6.50;56.40;;;;;;4975176;28;20046;-74
2021/04/05 00:34:44;;;;;;;19.45;5.05;;;6.60;57.10;;;;;;4974527;28;20048;-74
2021/04/05 00:37:09;;;;;;;14.95;5.47;;;6.60;56.70;;;;;;4970782;28;20047;-74
2021/04/05 00:39:35;;;;;;;10.48;4.18;;;6.60;56.40;;;;;;4974318;28;20053;-74
2021/04/05 00:42:01;;;;;;;15.40;4.68;;;6.80;55.20;;;;;;4976803;28;20118;-74
2021/04/05 00:44:27;;;;;;;15.40;4.63;;;6.90;54.90;;;;;;4992768;28;20062;-75
2021/04/05 00:46:52;;;;;;;16.67;5.20;;;6.90;54.70;;;;;;5007303;28;20038;-74
2021/04/05 00:49:18;;;;;;;17.67;4.63;;;7.00;54.10;;;;;;4987634;28;20064;-74
2021/04/05 00:51:44;;;;;;;19.15;5.20;;;7.10;53.90;;;;;;4980765;28;20035;-74
2021/04/05 00:54:10;;;;;;;12.77;5.00;;;7.10;54.10;;;;;;4982963;28;20045;-74
2021/04/05 00:56:36;;;;;;;15.43;4.43;;;7.10;53.60;;;;;;5010963;28;20054;-74
2021/04/05 00:59:01;;;;;;;10.63;4.60;;;7.20;53.00;;;;;;4982528;28;20035;-72
2021/04/05 01:01:27;;;;;;;13.80;4.63;;;7.20;52.50;;;;;;4990097;28;20546;-74
2021/04/05 01:03:54;;;;;;;11.02;4.55;;;7.20;53.00;;;;;;4990460;28;20038;-74
2021/04/05 01:06:21;;;;;;;18.08;4.93;;;7.20;52.60;;;;;;4988069;28;20042;-72
2021/04/05 01:08:47;;;;;;;14.80;4.85;;;7.10;53.00;;;;;;5005788;28;20054;-73
2021/04/05 01:11:14;;;;;;;13.38;4.72;;;7.20;52.60;;;;;;4960318;28;20054;-72
2021/04/05 01:13:40;;;;;;;11.32;4.32;;;7.10;52.60;;;;;;4970315;28;20182;-74
2021/04/05 01:16:06;;;;;;;13.02;4.47;;;7.10;52.80;;;;;;4966493;28;20051;-73
2021/04/05 01:18:32;;;;;;;9.32;3.58;;;7.00;52.80;;;;;;4974477;28;20038;-73
2021/04/05 01:20:58;;;;;;;21.40;5.15;;;7.00;53.10;;;;;;4970636;28;20064;-74
2021/04/05 01:23:24;;;;;;;13.50;4.15;;;6.90;53.70;;;;;;4970679;28;20434;-74
2021/04/05 01:25:50;;;;;;;12.23;4.40;;;6.90;54.00;;;;;;4971502;28;20048;-74
2021/04/05 01:28:17;;;;;;;12.77;3.88;;;6.80;54.10;;;;;;4975027;28;20259;-74
2021/04/05 01:30:48;;;;;;;9.98;3.92;;;6.80;53.80;;;;;;4973715;28;20062;-74
2021/04/05 01:33:20;;;;;;;15.88;4.35;;;6.70;54.20;;;;;;4974318;28;20574;-74
2021/04/05 01:35:57;;;;;;;16.17;4.10;;;6.80;53.80;;;;;;4970663;28;20053;-74
2021/04/05 01:38:41;;;;;;;14.05;4.93;;;6.80;53.80;;;;;;4975389;28;20042;-75
2021/04/05 01:41:20;;;;;;;17.80;4.30;;;6.80;53.90;;;;;;4972061;28;20042;-74
2021/04/05 01:43:46;;;;;;;10.10;4.30;;;6.80;54.00;;;;;;4972645;28;20648;-75
2021/04/05 01:46:14;;;;;;;12.93;4.38;;;6.70;53.90;;;;;;4975061;28;20113;-74
2021/04/05 01:48:40;;;;;;;17.02;4.35;;;6.70;55.00;;;;;;4959281;28;20046;-73
2021/04/05 01:51:07;;;;;;;15.98;4.95;;;6.70;55.00;;;;;;4989744;28;20039;-74
2021/04/05 01:53:34;;;;;;;13.82;4.75;;;6.70;55.00;;;;;;4975362;28;20043;-74
2021/04/05 01:56:02;;;;;;;21.05;4.65;;;6.60;54.90;;;;;;4975234;28;20606;-74
2021/04/05 01:58:29;;;;;;;18.77;4.45;;;6.60;55.10;;;;;;4976312;28;20045;-74
2021/04/05 02:00:55;;;;;;;15.07;4.43;;;6.60;54.70;;;;;;4975684;28;20110;-74
2021/04/05 02:03:21;;;;;;;13.77;4.80;;;6.60;54.90;;;;;;4973043;28;20049;-74
2021/04/05 02:05:55;;;;;;;8.93;4.00;;;6.60;55.10;;;;;;4975962;28;20119;-74
2021/04/05 02:08:25;;;;;;;13.80;4.87;;;6.50;55.60;;;;;;4974460;28;20070;-74
2021/04/05 02:10:52;;;;;;;14.93;4.32;;;6.40;56.40;;;;;;4973871;28;20046;-75
2021/04/05 02:13:24;;;;;;;11.98;4.30;;;6.30;56.30;;;;;;4971426;28;20041;-73
2021/04/05 02:15:52;;;;;;;21.02;4.75;;;6.40;56.50;;;;;;4968755;28;20043;-74
2021/04/05 02:18:19;;;;;;;20.95;4.15;;;6.40;56.60;;;;;;4977380;28;20129;-74
2021/04/05 02:20:45;;;;;;;18.50;4.75;;;6.40;56.70;;;;;;4979354;28;20376;-74
2021/04/05 02:23:12;;;;;;;14.65;4.82;;;6.40;56.50;;;;;;4973050;28;20449;-72
2021/04/05 02:28:25;;;;;;;17.08;4.90;;;6.20;57.30;;;;;;4973605;28;20042;-74
2021/04/05 02:30:51;;;;;;;17.60;4.65;;;6.20;57.30;;;;;;4968809;28;20043;-74
2021/04/05 02:33:17;;;;;;;14.57;4.93;;;6.20;57.00;;;;;;4971834;28;20059;-74
2021/04/05 02:35:43;;;;;;;15.45;4.72;;;6.20;57.20;;;;;;4993106;28;20041;-74
2021/04/05 02:38:09;;;;;;;15.38;4.85;;;6.20;57.70;;;;;;4992465;28;20864;-73
2021/04/05 02:40:35;;;;;;;12.18;4.30;;;6.20;57.50;;;;;;4990984;28;20078;-74
2021/04/05 02:43:01;;;;;;;12.98;4.90;;;6.10;57.90;;;;;;4992313;28;20037;-75
2021/04/05 02:45:27;;;;;;;10.57;5.13;;;6.10;58.50;;;;;;4991936;28;20042;-74
2021/04/05 02:47:58;;;;;;;16.95;4.43;;;6.10;59.00;;;;;;4995925;28;20052;-74
2021/04/05 02:50:27;;;;;;;15.13;4.78;;;6.00;59.20;;;;;;4990788;28;21086;-74
2021/04/05 02:52:58;;;;;;;17.00;5.28;;;6.00;59.60;;;;;;4995491;28;20041;-74
2021/04/05 02:55:25;;;;;;;8.82;4.22;;;5.90;59.70;;;;;;4992820;28;20116;-74
2021/04/05 02:57:52;;;;;;;16.45;5.22;;;6.00;59.50;;;;;;4993542;28;20042;-72
2021/04/05 03:00:19;;;;;;;11.73;4.43;;;6.00;59.60;;;;;;4993362;28;20026;-74
2021/04/05 03:02:49;;;;;;;13.23;4.00;;;6.00;59.50;;;;;;4996311;28;20487;-74
2021/04/05 03:05:18;;;;;;;20.15;4.63;;;6.00;59.80;;;;;;4996522;28;20553;-74
2021/04/05 03:07:44;;;;;;;16.80;4.95;;;6.00;59.80;;;;;;4993396;28;20426;-74
2021/04/05 03:10:12;;;;;;;13.35;4.82;;;6.00;60.00;;;;;;4956758;28;20035;-72
2021/04/05 03:12:42;;;;;;;14.90;4.75;;;6.00;60.40;;;;;;4970314;28;20399;-74
2021/04/05 03:15:11;;;;;;;12.02;4.40;;;5.90;60.20;;;;;;4970092;28;20105;-72
2021/04/05 03:17:38;;;;;;;17.88;4.82;;;5.90;60.50;;;;;;4969846;28;20125;-72
2021/04/05 03:20:08;;;;;;;11.88;4.57;;;5.80;60.50;;;;;;4973729;28;20047;-74
2021/04/05 03:22:35;;;;;;;11.10;5.07;;;5.80;60.90;;;;;;4968753;28;20035;-75
2021/04/05 03:25:01;;;;;;;19.10;4.97;;;5.70;61.20;;;;;;4969483;28;20034;-74
2021/04/05 03:27:26;;;;;;;23.38;5.32;;;5.70;61.90;;;;;;4971248;28;20097;-72
2021/04/05 03:29:53;;;;;;;12.15;5.47;;;5.70;62.00;;;;;;4970397;28;20093;-74
2021/04/05 03:32:21;;;;;;;14.48;5.85;;;5.60;62.10;;;;;;4971141;28;20030;-73
2021/04/05 03:34:57;;;;;;;22.05;5.05;;;5.60;62.50;;;;;;4975332;28;20038;-75
2021/04/05 03:37:25;;;;;;;14.77;5.47;;;5.60;63.30;;;;;;4992371;28;20043;-74
2021/04/05 03:39:51;;;;;;;21.88;5.53;;;5.60;63.60;;;;;;4988962;28;20586;-74
2021/04/05 03:42:35;;;;;;;18.42;4.88;;;5.60;63.30;;;;;;4972328;28;20063;-73
2021/04/05 03:45:16;;;;;;;16.37;5.03;;;5.70;63.30;;;;;;4970481;28;20045;-75
2021/04/05 03:47:57;;;;;;;15.27;4.90;;;5.60;63.40;;;;;;4961093;28;20046;-73
2021/04/05 03:50:27;;;;;;;16.67;5.25;;;5.60;63.70;;;;;;4958232;28;20038;-74
2021/04/05 03:53:13;;;;;;;23.67;5.50;;;5.50;64.10;;;;;;4981163;28;20033;-74
2021/04/05 03:55:40;;;;;;;19.05;4.82;;;5.50;64.30;;;;;;4973307;28;20046;-74
2021/04/05 03:58:09;;;;;;;21.08;5.35;;;5.50;64.40;;;;;;4950211;28;20053;-74
2021/04/05 04:00:39;;;;;;;17.02;5.43;;;5.50;64.70;;;;;;4951045;28;20291;-74
2021/04/05 04:03:08;;;;;;;15.90;6.07;;;5.50;64.60;;;;;;4969669;28;20106;-74
2021/04/05 04:10:51;;;;;;;22.90;5.53;;;5.50;66.60;;;;;;4921886;28;20050;-74
2021/04/05 04:13:18;;;;;;;15.18;5.53;;;5.30;66.60;;;;;;4929601;28;20431;-74
2021/04/05 04:15:47;;;;;;;18.42;5.22;;;5.30;67.40;;;;;;4975849;28;20045;-74
2021/04/05 04:18:14;;;;;;;22.77;5.30;;;5.30;68.00;;;;;;4965397;28;20596;-74
2021/04/05 04:20:39;;;;;;;15.88;5.00;;;5.20;68.40;;;;;;4918561;28;20045;-74
2021/04/05 04:23:05;;;;;;;18.75;5.40;;;5.20;69.40;;;;;;4971072;28;20577;-74
2021/04/05 04:25:31;;;;;;;17.05;5.00;;;5.20;70.30;;;;;;4943425;28;20531;-74
2021/04/05 04:27:57;;;;;;;16.38;5.72;;;5.10;70.80;;;;;;4915845;28;20108;-74
2021/04/05 04:30:33;;;;;;;14.77;4.95;;;5.20;70.90;;;;;;4951501;28;21782;-74
2021/04/05 04:33:03;;;;;;;20.50;5.40;;;5.20;70.90;;;;;;4984142;28;20042;-74
2021/04/05 04:35:30;;;;;;;15.35;5.00;;;5.30;70.40;;;;;;4969646;28;20106;-74
2021/04/05 04:37:56;;;;;;;18.83;5.70;;;5.30;70.70;;;;;;4962108;28;20622;-75
2021/04/05 04:40:25;;;;;;;18.25;5.22;;;5.30;70.20;;;;;;4944618;28;20054;-75
2021/04/05 04:42:54;;;;;;;15.35;4.75;;;5.40;69.90;;;;;;4946662;28;20074;-74
2021/04/05 04:45:20;;;;;;;14.30;4.50;;;5.50;69.60;;;;;;4931432;28;20056;-74
2021/04/05 04:47:46;;;;;;;20.52;4.95;;;5.50;69.30;;;;;;4945127;28;20042;-74
2021/04/05 04:50:16;;;;;;;12.82;4.80;;;5.50;69.80;;;;;;4936095;28;20140;-74
2021/04/05 04:52:42;;;;;;;18.95;5.47;;;5.50;69.50;;;;;;4971492;28;20091;-74
2021/04/05 04:55:09;;;;;;;12.57;4.63;;;5.60;69.40;;;;;;4944888;28;20129;-74
2021/04/05 04:57:35;;;;;;;9.93;4.57;;;5.60;68.80;;;;;;4945631;28;20050;-74
2021/04/05 05:00:02;;;;;;;14.52;5.22;;;5.70;68.30;;;;;;4968899;28;20213;-74
2021/04/05 05:02:30;;;;;;;18.90;5.00;;;5.70;68.30;;;;;;4946260;28;20044;-74
2021/04/05 05:04:56;;;;;;;14.82;4.72;;;5.80;67.90;;;;;;4948109;28;20128;-74
2021/04/05 05:07:25;;;;;;;16.67;4.53;;;5.80;67.90;;;;;;4948677;28;20050;-74
2021/04/05 05:09:51;;;;;;;15.73;4.28;;;5.80;67.50;;;;;;4949400;28;20066;-73
2021/04/05 05:12:17;;;;;;;9.40;3.95;;;5.80;67.60;;;;;;4972040;28;20770;-74
2021/04/05 05:14:43;;;;;;;16.42;4.65;;;5.80;67.10;;;;;;4949613;28;20108;-75
2021/04/05 05:17:10;;;;;;;10.52;4.07;;;6.00;67.60;;;;;;4971895;28;20038;-74
2021/04/05 05:19:39;;;;;;;14.45;5.15;;;6.00;66.90;;;;;;4966929;28;20038;-74
2021/04/05 05:22:07;;;;;;;14.68;3.95;;;6.10;66.40;;;;;;4950654;28;20120;-74
2021/04/05 05:24:36;;;;;;;17.13;4.65;;;6.10;66.20;;;;;;4993347;28;20088;-74
2021/04/05 05:27:03;;;;;;;16.15;4.30;;;6.10;66.30;;;;;;4987970;28;20022;-74
2021/04/05 05:29:29;;;;;;;12.00;4.35;;;6.10;66.20;;;;;;4971954;28;20042;-73
2021/04/05 05:31:55;;;;;;;13.65;4.32;;;6.20;65.30;;;;;;4998388;28;20505;-72
2021/04/05 05:34:23;;;;;;;10.73;4.18;;;6.20;65.30;;;;;;4989150;28;20049;-75
2021/04/05 05:36:49;;;;;;;12.70;4.30;;;6.20;65.70;;;;;;4990933;28;20022;-74
2021/04/05 05:39:16;;;;;;;12.43;4.50;;;6.20;65.10;;;;;;4990411;28;20168;-73
2021/04/05 05:42:04;;;;;;;17.60;4.88;;;6.30;65.30;;;;;;4972584;28;20225;-73
2021/04/05 05:45:03;;;;;;;17.77;4.15;;;6.30;64.90;;;;;;4983470;28;20100;-74
2021/04/05 05:47:48;;;;;;;12.27;4.40;;;6.40;65.00;;;;;;4989038;28;20101;-73
2021/04/05 05:50:31;;;;;;;11.05;4.85;;;6.50;65.10;;;;;;4972953;28;20066;-74
2021/04/05 05:53:27;;;;;;;13.80;4.30;;;6.50;64.10;;;;;;4958001;28;20443;-72
2021/04/05 05:56:22;;;;;;;13.13;4.45;;;6.60;64.30;;;;;;4902982;28;20664;-74
2021/04/05 05:59:07;;;;;;;18.02;4.32;;;6.80;64.30;;;;;;4921733;28;20074;-72
2021/04/05 06:01:40;;;;;;;20.25;4.80;;;6.80;64.30;;;;;;4917437;28;20133;-75
2021/04/05 06:04:18;;;;;;;15.35;4.00;;;6.90;64.30;;;;;;4915380;28;20039;-74
2021/04/05 06:06:57;;;;;;;10.48;4.15;;;6.90;64.30;;;;;;4912656;28;20162;-74
2021/04/05 06:09:39;;;;;;;10.82;3.88;;;7.00;63.80;;;;;;4940774;28;20044;-73
2021/04/05 06:12:13;;;;;;;13.93;4.63;;;7.00;63.20;;;;;;4944796;28;20045;-73
2021/04/05 06:14:57;;;;;;;11.10;4.50;;;7.10;62.80;;;;;;4945996;28;20127;-73
2021/04/05 06:17:31;;;;;;;11.88;4.28;;;7.20;62.50;;;;;;4973055;23;20049;-77
2021/04/05 06:20:03;;;;;;;;;;;7.10;63.20;;;;;;4955739;28;20038;-77
2021/04/05 06:22:51;;;;;;;12.30;3.97;;;7.30;63.10;;;;;;4955062;28;19917;-76
2021/04/05 06:25:42;;;;;;;13.45;4.30;;;7.40;62.50;;;;;;4956870;28;20570;-77
2021/04/05 06:28:16;;;;;;;16.70;4.65;;;7.50;62.10;;;;;;4959285;28;20494;-76
2021/04/05 06:31:00;;;;;;;12.98;4.82;;;7.60;62.80;;;;;;4951735;28;20046;-78
2021/04/05 06:33:34;;;;;;;9.73;4.67;;;7.70;60.50;;;;;;4928552;28;20559;-75
2021/04/05 06:36:19;;;;;;;14.43;4.53;;;7.80;60.40;;;;;;4959952;28;20757;-76
2021/04/05 06:38:54;;;;;;;15.77;4.60;;;7.90;60.10;;;;;;4971550;28;20549;-76
2021/04/05 06:41:36;;;;;;;11.93;4.20;;;8.00;60.00;;;;;;4951046;28;22479;-75
2021/04/05 06:44:18;;;;;;;11.88;4.47;;;8.10;58.00;;;;;;4951738;28;20038;-76
2021/04/05 06:47:00;;;;;;;10.60;4.28;;;8.10;60.30;;;;;;4946718;28;20549;-76
2021/04/05 06:50:15;;;;;;;11.90;3.97;;;8.30;55.20;;;;;;4952819;28;21942;-75
2021/04/05 06:53:13;;;;;;;10.57;4.22;;;8.40;53.70;;;;;;4945666;28;20558;-76
2021/04/05 06:55:52;;;;;;;12.32;3.70;;;8.60;51.70;;;;;;4976984;28;20084;-76
2021/04/05 06:58:46;;;;;;;10.43;3.65;;;8.70;49.50;;;;;;4940416;28;20041;-76
2021/04/05 07:01:46;;;;;;;10.27;4.03;;;8.80;49.50;;;;;;4955612;28;20427;-76
2021/04/05 07:05:08;;;;;;;10.25;3.92;;;9.00;48.60;;;;;;4951989;28;20129;-76
2021/04/05 07:07:45;;;;;;;15.25;4.60;;;9.10;45.80;;;;;;4994001;28;20046;-76
2021/04/05 07:10:19;;;;;;;11.73;3.95;;;9.20;45.20;;;;;;5006904;28;20052;-76
2021/04/05 07:13:01;;;;;;;16.20;4.47;;;9.30;44.60;;;;;;4997767;28;20038;-76
2021/04/05 07:15:42;;;;;;;8.88;3.47;;;9.50;43.30;;;;;;4990419;28;20554;-77
2021/04/05 07:18:20;;;;;;;12.45;3.92;;;9.60;41.70;;;;;;5013032;28;20049;-74
2021/04/05 07:21:00;;;;;;;12.48;4.60;;;9.60;41.10;;;;;;4994045;28;20507;-75
2021/04/05 07:23:49;;;;;;;12.45;3.85;;;9.70;41.40;;;;;;4991474;28;20038;-74
2021/04/05 07:26:20;;;;;;;19.60;3.90;;;9.80;40.90;;;;;;4991984;28;20038;-75
2021/04/05 07:29:03;;;;;;;14.10;4.13;;;10.00;40.00;;;;;;5000546;28;20527;-76
2021/04/05 07:31:50;;;;;;;13.23;4.55;;;10.20;39.30;;;;;;5001374;28;20100;-76
2021/04/05 07:34:50;;;;;;;13.35;4.63;;;10.30;37.50;;;;;;4994378;28;20069;-76
2021/04/05 07:37:27;;;;;;;9.23;4.20;;;10.60;36.80;;;;;;4989790;28;20542;-75
2021/04/05 07:40:23;;;;;;;15.68;4.18;;;10.80;35.70;;;;;;4992262;28;20038;-75
2021/04/05 07:43:10;;;;;;;14.77;4.85;;;11.10;34.90;;;;;;4989436;28;20041;-75
2021/04/05 07:45:41;;;;;;;14.32;4.30;;;11.30;34.80;;;;;;4996065;28;20184;-75
2021/04/05 07:48:23;;;;;;;16.75;4.70;;;11.30;33.40;;;;;;4995756;28;20038;-77
2021/04/05 07:50:56;;;;;;;15.20;4.70;;;11.60;33.50;;;;;;4994282;28;20121;-75
2021/04/05 07:53:40;;;;;;;15.20;4.78;;;11.70;32.70;;;;;;4990462;28;20046;-75
2021/04/05 07:56:23;;;;;;;12.40;4.60;;;11.70;31.80;;;;;;4992948;28;20056;-76
2021/04/05 07:59:08;;;;;;;15.65;4.57;;;12.10;31.60;;;;;;4987976;28;20050;-76
2021/04/05 08:01:48;;;;;;;16.42;4.40;;;12.00;30.30;;;;;;4992331;28;20034;-76
2021/04/05 08:04:27;;;;;;;10.57;4.57;;;12.40;31.70;;;;;;5000468;28;20033;-76
2021/04/05 08:07:02;;;;;;;20.00;5.15;;;12.50;30.50;;;;;;4994678;28;20625;-75
2021/04/05 08:09:39;;;;;;;11.95;3.92;;;13.10;29.70;;;;;;4991965;28;20088;-76
2021/04/05 08:12:13;;;;;;;14.77;4.25;;;13.40;28.40;;;;;;4996168;28;20030;-76
2021/04/05 08:14:50;;;;;;;12.98;4.22;;;13.50;28.20;;;;;;4993673;28;20064;-76
2021/04/05 08:17:45;;;;;;;11.13;3.70;;;13.40;28.30;;;;;;4989686;28;20049;-76
2021/04/05 08:20:27;;;;;;;12.73;4.32;;;13.70;27.90;;;;;;4992535;28;20070;-74
2021/04/05 08:23:02;;;;;;;14.98;3.95;;;13.80;27.70;;;;;;4993898;28;20034;-77
2021/04/05 08:26:12;;;;;;;13.48;4.22;;;13.50;28.40;;;;;;4988500;28;20084;-77
2021/04/05 08:28:56;;;;;;;11.38;3.92;;;13.50;27.90;;;;;;4992076;28;20061;-78
2021/04/05 08:31:49;;;;;;;26.52;4.57;;;13.70;27.40;;;;;;4997305;28;20041;-77
2021/04/05 08:34:52;;;;;;;7.88;3.38;;;13.50;26.90;;;;;;4988703;28;20505;-77
2021/04/05 08:37:32;;;;;;;12.45;3.80;;;13.60;27.20;;;;;;4986785;28;20671;-76
2021/04/05 08:40:10;;;;;;;14.25;3.83;;;14.00;27.00;;;;;;4991075;28;20037;-76
2021/04/05 08:43:04;;;;;;;18.60;3.92;;;14.00;26.50;;;;;;4991520;28;20511;-77
2021/04/05 08:45:48;;;;;;;11.95;3.42;;;14.20;27.00;;;;;;4988796;28;20053;-77
2021/04/05 08:48:20;;;;;;;13.93;3.30;;;13.90;26.60;;;;;;4988674;28;20038;-77
2021/04/05 08:50:57;;;;;;;12.90;3.97;;;14.10;25.40;;;;;;4990176;28;20046;-76
2021/04/05 08:53:23;;;;;;;15.27;3.50;;;14.10;25.50;;;;;;4988254;28;20037;-75
2021/04/05 08:55:51;;;;;;;16.52;3.42;;;13.90;23.30;;;;;;4993916;28;20041;-76
2021/04/05 08:58:39;;;;;;;11.60;2.95;;;13.60;23.70;;;;;;4989484;28;20046;-75
2021/04/05 09:01:09;;;;;;;13.63;2.80;;;13.50;22.80;;;;;;4986112;28;20038;-75
2021/04/05 09:03:36;;;;;;;10.45;2.78;;;13.50;22.10;;;;;;4985684;28;20037;-75
2021/04/05 09:06:10;;;;;;;15.27;3.13;;;13.60;21.90;;;;;;4979117;28;20112;-75
2021/04/05 09:08:37;;;;;;;11.40;3.67;;;13.40;23.00;;;;;;4985367;28;20129;-75
2021/04/05 09:11:04;;;;;;;7.93;2.78;;;13.20;23.10;;;;;;4990186;28;20070;-76
2021/04/05 09:13:59;;;;;;;13.20;2.90;;;13.10;22.90;;;;;;4986668;28;20124;-74
2021/04/05 09:16:24;;;;;;;10.25;2.72;;;12.90;22.20;;;;;;4984989;28;20038;-75
2021/04/05 09:19:21;;;;;;;14.63;3.58;;;13.00;23.50;;;;;;4988467;28;20060;-74
2021/04/05 09:22:11;;;;;;;19.42;3.45;;;12.80;23.20;;;;;;4987185;28;20038;-75
2021/04/05 09:24:55;;;;;;;11.98;2.95;;;13.00;23.50;;;;;;4988377;28;20074;-75
2021/04/05 09:27:57;;;;;;;15.18;2.58;;;12.90;23.10;;;;;;4991242;28;20570;-75
2021/04/05 09:30:44;;;;;;;15.70;2.92;;;13.00;23.00;;;;;;4990499;28;20734;-75
2021/04/05 09:33:47;;;;;;;21.45;3.10;;;13.10;24.10;;;;;;4991461;28;20117;-75
2021/04/05 09:36:43;;;;;;;12.73;2.95;;;13.10;23.90;;;;;;4987179;28;20037;-75
2021/04/05 09:39:42;;;;;;;13.32;3.55;;;13.00;23.80;;;;;;4990620;28;20442;-75
2021/04/05 09:42:27;;;;;;;12.82;3.22;;;13.30;24.80;;;;;;5004413;28;20046;-76
2021/04/05 09:45:03;;;;;;;12.95;3.30;;;13.70;23.50;;;;;;4987216;28;20065;-75
2021/04/05 09:47:55;;;;;;;12.20;2.63;;;13.70;23.20;;;;;;4989693;28;20042;-75
2021/04/05 09:50:27;;;;;;;15.35;2.83;;;13.50;22.70;;;;;;4996824;28;20045;-74
2021/04/05 09:53:17;;;;;;;19.00;3.78;;;13.40;23.10;;;;;;4996943;28;20041;-75
2021/04/05 09:55:59;;;;;;;14.18;3.75;;;13.20;22.60;;;;;;5013890;28;20434;-74
2021/04/05 09:58:29;;;;;;;11.90;2.60;;;13.20;22.60;;;;;;4995608;28;20084;-75
2021/04/05 10:01:25;;;;;;;9.63;2.80;;;13.20;21.60;;;;;;4998534;28;20037;-76
2021/04/05 10:03:55;;;;;;;9.20;2.40;;;13.30;21.50;;;;;;5000885;28;20687;-75
2021/04/05 10:06:24;;;;;;;17.88;3.97;;;13.30;21.50;;;;;;4997107;28;20039;-75
2021/04/05 10:08:51;;;;;;;7.85;3.00;;;13.30;21.40;;;;;;4995484;28;20101;-75
2021/04/05 10:11:18;;;;;;;15.82;3.35;;;13.20;20.50;;;;;;4993993;28;20121;-76
2021/04/05 10:13:47;;;;;;;8.32;3.20;;;13.30;20.50;;;;;;4996335;28;20651;-75
2021/04/05 10:16:16;;;;;;;14.50;3.17;;;13.50;20.20;;;;;;5001887;28;20046;-75
2021/04/05 10:18:48;;;;;;;13.23;2.80;;;13.30;20.10;;;;;;4996302;28;20049;-75
2021/04/05 10:21:14;;;;;;;14.73;2.97;;;13.50;19.70;;;;;;4992190;28;20513;-74
2021/04/05 10:23:41;;;;;;;17.75;3.10;;;13.60;19.70;;;;;;5002988;28;20045;-75
2021/04/05 10:26:08;;;;;;;16.63;3.63;;;13.40;19.50;;;;;;4993303;28;20044;-76
2021/04/05 10:28:36;;;;;;;11.45;2.97;;;13.40;19.80;;;;;;4990319;28;20454;-74
2021/04/05 10:31:06;;;;;;;14.40;3.65;;;13.40;19.30;;;;;;4987214;28;20042;-75
2021/04/05 10:33:38;;;;;;;8.25;2.30;;;13.40;18.70;;;;;;4989235;28;20045;-74
2021/04/05 10:36:07;;;;;;;9.35;3.05;;;13.50;19.50;;;;;;4990752;28;20091;-74
2021/04/05 10:38:36;;;;;;;16.65;2.60;;;13.20;18.10;;;;;;4986543;28;20391;-75
2021/04/05 10:41:09;;;;;;;9.98;2.90;;;13.00;18.30;;;;;;4987533;28;20105;-76
2021/04/05 10:44:04;;;;;;;9.68;2.67;;;13.20;18.60;;;;;;4992758;28;20064;-76
2021/04/05 10:46:34;;;;;;;12.30;3.08;;;13.10;17.30;;;;;;4988967;28;20045;-76
2021/04/05 10:49:06;;;;;;;15.88;3.42;;;13.00;17.60;;;;;;4990480;28;20076;-75
2021/04/05 10:51:41;;;;;;;13.65;2.50;;;13.10;18.50;;;;;;4994982;28;20566;-75
2021/04/05 10:54:34;;;;;;;9.63;3.15;;;13.10;16.90;;;;;;4995801;28;20113;-76
2021/04/05 10:57:04;;;;;;;14.20;3.00;;;13.30;17.60;;;;;;4996401;28;20037;-75
2021/04/05 10:59:50;;;;;;;6.90;2.60;;;13.50;17.60;;;;;;4990025;28;20085;-75
2021/04/05 11:02:37;;;;;;;11.75;3.08;;;13.30;17.00;;;;;;4987090;28;20039;-75
2021/04/05 11:05:12;;;;;;;8.57;2.38;;;13.40;17.20;;;;;;5003492;28;20419;-75
2021/04/05 11:07:40;;;;;;;11.43;3.15;;;13.60;17.30;;;;;;4986046;28;20056;-76
2021/04/05 11:10:09;;;;;;;7.07;2.53;;;13.50;17.30;;;;;;4986529;28;20121;-75
2021/04/05 11:12:39;;;;;;;10.65;2.92;;;13.50;17.20;;;;;;4986448;28;20537;-75
2021/04/05 11:15:09;;;;;;;11.50;2.53;;;13.80;17.20;;;;;;4979477;28;20046;-75
2021/04/05 11:17:38;;;;;;;8.35;2.53;;;13.80;17.10;;;;;;4982327;28;20041;-74
2021/04/05 11:20:05;;;;;;;14.40;2.97;;;14.20;18.40;;;;;;4984349;28;20058;-75
2021/04/05 11:22:32;;;;;;;13.23;4.05;;;14.10;18.80;;;;;;4988410;28;20140;-75
2021/04/05 11:25:05;;;;;;;25.05;3.85;;;14.10;20.20;;;;;;4987687;28;20406;-75
2021/04/05 11:27:47;;;;;;;12.43;3.30;;;13.80;20.50;;;;;;4984054;28;20176;-75
2021/04/05 11:30:23;;;;;;;17.45;4.35;;;13.90;21.60;;;;;;4989980;28;20038;-75
2021/04/05 11:32:52;;;;;;;16.38;3.95;;;13.50;21.30;;;;;;4992333;28;20037;-74
2021/04/05 11:35:20;;;;;;;21.70;3.85;;;13.60;22.00;;;;;;4989992;28;20018;-75
2021/04/05 11:37:47;;;;;;;13.02;4.75;;;13.80;22.60;;;;;;4991644;28;20586;-75
2021/04/05 11:40:16;;;;;;;16.50;4.53;;;13.90;22.80;;;;;;4980141;28;20038;-75
2021/04/05 11:42:47;;;;;;;17.42;4.07;;;13.90;22.30;;;;;;4987081;28;20503;-75
2021/04/05 11:45:33;;;;;;;20.90;4.95;;;13.80;22.40;;;;;;4993108;28;20054;-76
2021/04/05 11:48:04;;;;;;;12.32;4.93;;;13.90;22.90;;;;;;4996949;28;20036;-76
2021/04/05 11:50:30;;;;;;;15.90;5.78;;;14.00;23.60;;;;;;4992173;28;20151;-77
2021/04/05 11:53:07;;;;;;;28.90;5.88;;;13.90;22.90;;;;;;4990472;28;20052;-76
2021/04/05 11:55:36;;;;;;;20.02;5.88;;;13.30;23.70;;;;;;4992633;28;20116;-76
2021/04/05 11:58:03;;;;;;;22.17;5.50;;;13.50;25.70;;;;;;4990592;28;20140;-76
2021/04/05 12:00:40;;;;;;;20.27;5.70;;;13.40;24.80;;;;;;4992761;28;20402;-75
2021/04/05 12:03:21;;;;;;;21.05;6.75;;;13.40;24.90;;;;;;4992261;28;20101;-75
2021/04/05 12:06:11;;;;;;;22.95;6.72;;;13.30;25.40;;;;;;4989735;28;20026;-76
2021/04/05 12:08:54;;;;;;;19.63;7.00;;;13.00;26.00;;;;;;4991042;28;20226;-76
2021/04/05 12:11:24;;;;;;;17.17;6.03;;;12.80;25.90;;;;;;4990304;28;20645;-76
2021/04/05 12:13:55;;;;;;;22.83;6.43;;;13.00;26.50;;;;;;4994103;28;20341;-75
2021/04/05 12:16:26;;;;;;;23.75;6.95;;;12.80;26.40;;;;;;4991488;28;20021;-76
2021/04/05 12:18:53;;;;;;;22.70;6.93;;;12.80;27.10;;;;;;4994125;28;20061;-76
2021/04/05 12:21:26;;;;;;;16.52;6.13;;;12.70;27.20;;;;;;4998452;28;20463;-76
2021/04/05 12:23:57;;;;;;;24.50;7.45;;;12.40;27.60;;;;;;4998318;28;20026;-74
2021/04/05 12:26:25;;;;;;;34.95;7.68;;;12.30;28.70;;;;;;4991030;28;20032;-75
2021/04/05 12:28:53;;;;;;;22.95;8.77;;;12.50;29.40;;;;;;4992355;28;20036;-74
2021/04/05 12:31:23;;;;;;;24.23;7.90;;;12.20;30.50;;;;;;5005291;28;20395;-74
2021/04/05 12:33:52;;;;;;;34.85;9.40;;;12.20;31.70;;;;;;4997158;28;20483;-75
2021/04/05 12:36:18;;;;;;;34.13;9.13;;;12.00;32.20;;;;;;4996776;28;20398;-74
2021/04/05 12:38:49;;;;;;;24.58;8.75;;;12.00;33.00;;;;;;4987235;28;20041;-75
2021/04/05 12:41:16;;;;;;;27.83;8.63;;;11.70;33.70;;;;;;4995144;28;20034;-75
2021/04/05 12:43:43;;;;;;;24.50;9.52;;;11.70;34.70;;;;;;5005520;28;20022;-76
2021/04/05 12:46:15;;;;;;;26.33;9.50;;;11.70;35.00;;;;;;5001818;28;20363;-74
2021/04/05 12:48:43;;;;;;;34.25;8.77;;;11.80;35.60;;;;;;4985395;28;20049;-76
2021/04/05 12:51:10;;;;;;;25.40;9.75;;;12.00;36.40;;;;;;4995105;28;20030;-75
2021/04/05 12:53:38;;;;;;;30.85;9.93;;;11.90;36.20;;;;;;4993395;28;20503;-75
2021/04/05 12:56:06;;;;;;;28.58;9.15;;;11.90;36.40;;;;;;4998259;28;20439;-75
2021/04/05 12:58:34;;;;;;;33.40;10.80;;;11.50;37.30;;;;;;4993011;28;20037;-76
2021/04/05 13:01:01;;;;;;;28.70;10.25;;;11.60;38.10;;;;;;4996020;28;20502;-75
2021/04/05 13:03:33;;;;;;;33.95;9.98;;;11.60;37.90;;;;;;4994927;28;20042;-76
2021/04/05 13:06:13;;;;;;;39.40;9.50;;;11.80;38.30;;;;;;4992090;28;20036;-74
2021/04/05 13:09:06;;;;;;;24.38;10.40;;;11.70;37.70;;;;;;4999206;28;20022;-76
2021/04/05 13:11:37;;;;;;;34.80;11.60;;;11.80;38.10;;;;;;5001084;28;20114;-75
2021/04/05 13:14:08;;;;;;;31.45;9.73;;;11.80;38.60;;;;;;4996664;28;20415;-75
2021/04/05 13:17:07;;;;;;;21.75;9.13;;;11.80;37.30;;;;;;5002566;28;20037;-75
2021/04/05 13:19:38;;;;;;;25.92;9.32;;;11.60;37.50;;;;;;5001351;28;20026;-74
2021/04/05 13:22:12;;;;;;;30.83;10.75;;;11.50;37.60;;;;;;4997168;28;20081;-73
2021/04/05 13:24:41;;;;;;;16.92;8.43;;;11.70;37.60;;;;;;5002626;28;20026;-74